createdAt,value
2018-12-23T00:00:09.194Z,6.20
2018-12-23T00:02:11.316Z,6.20
2018-12-23T00:04:13.449Z,6.20
2018-12-23T00:06:16.282Z,6.30
2018-12-23T00:08:18.552Z,6.20
2018-12-23T00:10:20.770Z,6.30
2018-12-23T00:12:23.049Z,6.30
2018-12-23T00:14:25.172Z,6.30
2018-12-23T00:16:27.324Z,6.30
2018-12-23T00:18:29.494Z,6.30
2018-12-23T00:20:31.933Z,6.30
2018-12-23T00:22:35.198Z,6.30
2018-12-23T00:24:37.384Z,6.30
2018-12-23T00:26:39.832Z,6.40
2018-12-23T00:28:42.084Z,6.30
2018-12-23T00:30:44.300Z,6.30
2018-12-23T00:32:46.576Z,6.30
2018-12-23T00:34:48.676Z,6.30
2018-12-23T00:36:51.141Z,6.40
2018-12-23T00:38:53.328Z,6.40
2018-12-23T00:40:55.421Z,6.40
2018-12-23T00:42:57.704Z,6.40
2018-12-23T00:44:59.788Z,6.40
2018-12-23T00:47:02.027Z,6.50
2018-12-23T00:49:04.204Z,6.50
2018-12-23T00:51:06.403Z,6.50
2018-12-23T00:53:08.515Z,6.50
2018-12-23T00:55:10.923Z,6.50
2018-12-23T00:57:13.016Z,6.50
2018-12-23T00:59:15.241Z,6.50
2018-12-23T01:01:17.548Z,6.50
2018-12-23T01:03:19.631Z,6.50
2018-12-23T01:05:28.685Z,6.50
2018-12-23T01:07:26.112Z,6.50
2018-12-23T01:09:28.333Z,6.50
2018-12-23T01:11:30.642Z,6.50
2018-12-23T01:13:32.862Z,6.50
2018-12-23T01:15:35.120Z,6.50
2018-12-23T01:17:37.657Z,6.50
2018-12-23T01:19:39.982Z,6.60
2018-12-23T01:21:42.208Z,6.60
2018-12-23T01:23:44.478Z,6.60
2018-12-23T01:25:46.588Z,6.60
2018-12-23T01:27:48.690Z,6.60
2018-12-23T01:29:50.856Z,6.60
2018-12-23T01:31:53.063Z,6.60
2018-12-23T01:33:55.141Z,6.60
2018-12-23T01:35:57.321Z,6.60
2018-12-23T01:37:59.389Z,6.60
2018-12-23T01:40:01.573Z,6.60
2018-12-23T01:42:03.872Z,6.60
2018-12-23T01:44:06.069Z,6.60
2018-12-23T01:46:08.243Z,6.60
2018-12-23T01:48:10.332Z,6.70
2018-12-23T01:50:12.392Z,6.70
2018-12-23T01:52:14.573Z,6.70
2018-12-23T01:54:16.792Z,6.70
2018-12-23T01:56:18.986Z,6.70
2018-12-23T01:58:21.176Z,6.70
2018-12-23T02:00:23.560Z,6.70
2018-12-23T02:02:25.748Z,6.70
2018-12-23T02:04:27.941Z,6.80
2018-12-23T02:06:30.090Z,6.80
2018-12-23T02:08:32.380Z,6.80
2018-12-23T02:10:34.577Z,6.70
2018-12-23T02:12:36.820Z,6.80
2018-12-23T02:14:38.998Z,6.80
2018-12-23T02:16:41.284Z,6.80
2018-12-23T02:18:43.364Z,6.80
2018-12-23T02:20:45.542Z,6.80
2018-12-23T02:22:47.830Z,6.80
2018-12-23T02:24:50.032Z,6.80
2018-12-23T02:26:52.229Z,6.70
2018-12-23T02:28:54.316Z,6.70
2018-12-23T02:30:56.641Z,6.80
2018-12-23T02:32:58.713Z,6.80
2018-12-23T02:35:00.804Z,6.70
2018-12-23T02:37:03.333Z,6.70
2018-12-23T02:39:07.269Z,6.80
2018-12-23T02:41:09.344Z,6.80
2018-12-23T02:43:11.413Z,6.80
2018-12-23T02:45:13.474Z,6.80
2018-12-23T02:47:15.756Z,6.80
2018-12-23T02:49:17.953Z,6.80
2018-12-23T02:51:20.235Z,6.80
2018-12-23T02:53:22.413Z,6.80
2018-12-23T02:55:24.848Z,6.80
2018-12-23T02:57:26.907Z,6.80
2018-12-23T02:59:29.197Z,6.80
2018-12-23T03:01:31.493Z,6.80
2018-12-23T03:03:33.663Z,6.80
2018-12-23T03:05:35.833Z,6.90
2018-12-23T03:07:38.139Z,6.80
2018-12-23T03:09:40.261Z,6.80
2018-12-23T03:11:42.563Z,6.90
2018-12-23T03:13:44.831Z,6.90
2018-12-23T03:15:47.017Z,6.90
2018-12-23T03:17:49.101Z,6.90
2018-12-23T03:19:51.393Z,6.90
2018-12-23T03:21:53.583Z,6.90
2018-12-23T03:23:55.845Z,6.90
2018-12-23T03:25:58.056Z,6.90
2018-12-23T03:28:00.147Z,6.90
2018-12-23T03:30:02.502Z,6.90
2018-12-23T03:32:04.689Z,6.90
2018-12-23T03:34:06.884Z,7.00
2018-12-23T03:36:14.934Z,7.00
2018-12-23T03:38:13.048Z,7.00
2018-12-23T03:40:15.494Z,6.90
2018-12-23T03:42:17.769Z,6.90
2018-12-23T03:44:19.975Z,7.00
2018-12-23T03:46:22.537Z,7.00
2018-12-23T03:48:24.592Z,7.00
2018-12-23T03:50:26.645Z,7.00
2018-12-23T03:52:28.710Z,7.00
2018-12-23T03:54:30.775Z,7.00
2018-12-23T03:56:33.045Z,7.00
2018-12-23T03:58:35.118Z,7.00
2018-12-23T04:00:37.296Z,7.00
2018-12-23T04:02:39.464Z,7.00
2018-12-23T04:04:41.528Z,7.00
2018-12-23T04:06:43.813Z,7.00
2018-12-23T04:08:45.875Z,7.00
2018-12-23T04:10:47.932Z,7.00
2018-12-23T04:12:50.103Z,7.00
2018-12-23T04:14:52.370Z,7.00
2018-12-23T04:16:54.417Z,7.10
2018-12-23T04:18:56.581Z,7.10
2018-12-23T04:20:58.662Z,7.10
2018-12-23T04:23:01.060Z,7.10
2018-12-23T04:25:03.516Z,7.10
2018-12-23T04:27:05.753Z,7.10
2018-12-23T04:29:07.924Z,7.10
2018-12-23T04:31:10.005Z,7.10
2018-12-23T04:33:12.095Z,7.10
2018-12-23T04:35:14.280Z,7.00
2018-12-23T04:37:16.464Z,7.00
2018-12-23T04:39:18.508Z,7.10
2018-12-23T04:41:20.601Z,7.10
2018-12-23T04:43:22.788Z,7.10
2018-12-23T04:45:24.841Z,7.10
2018-12-23T04:47:27.365Z,7.10
2018-12-23T04:49:29.424Z,7.10
2018-12-23T04:51:31.485Z,7.10
2018-12-23T04:53:33.671Z,7.10
2018-12-23T04:55:35.749Z,7.10
2018-12-23T04:57:37.929Z,7.10
2018-12-23T04:59:40.164Z,7.10
2018-12-23T05:01:42.244Z,7.10
2018-12-23T05:03:44.428Z,7.10
2018-12-23T05:05:46.515Z,7.10
2018-12-23T05:07:48.586Z,7.10
2018-12-23T05:09:50.656Z,7.10
2018-12-23T05:11:52.768Z,7.10
2018-12-23T05:13:54.839Z,7.10
2018-12-23T05:15:56.929Z,7.10
2018-12-23T05:17:59.017Z,7.10
2018-12-23T05:20:01.202Z,7.10
2018-12-23T05:22:03.485Z,7.10
2018-12-23T05:24:05.872Z,7.10
2018-12-23T05:26:07.960Z,7.10
2018-12-23T05:28:10.146Z,7.10
2018-12-23T05:30:12.344Z,7.20
2018-12-23T05:32:14.529Z,7.10
2018-12-23T05:34:16.625Z,7.10
2018-12-23T05:36:19.076Z,7.10
2018-12-23T05:38:21.149Z,7.10
2018-12-23T05:40:23.319Z,7.10
2018-12-23T05:42:25.713Z,7.10
2018-12-23T05:44:27.784Z,7.10
2018-12-23T05:46:29.955Z,7.10
2018-12-23T05:48:32.736Z,7.10
2018-12-23T05:50:34.901Z,7.10
2018-12-23T05:52:36.980Z,7.10
2018-12-23T05:54:39.176Z,7.10
2018-12-23T05:56:41.233Z,7.10
2018-12-23T05:58:43.304Z,7.10
2018-12-23T06:00:45.408Z,7.00
2018-12-23T06:02:47.589Z,7.00
2018-12-23T06:04:49.664Z,6.90
2018-12-23T06:06:51.820Z,6.90
2018-12-23T06:08:53.892Z,6.90
2018-12-23T06:10:55.971Z,6.90
2018-12-23T06:12:58.148Z,6.90
2018-12-23T06:15:00.279Z,6.90
2018-12-23T06:17:02.530Z,6.90
2018-12-23T06:19:13.145Z,6.90
2018-12-23T06:21:15.586Z,6.90
2018-12-23T06:23:17.681Z,6.90
2018-12-23T06:25:19.877Z,6.90
2018-12-23T06:27:22.162Z,6.90
2018-12-23T06:29:24.538Z,6.90
2018-12-23T06:31:26.819Z,6.90
2018-12-23T06:33:28.980Z,6.90
2018-12-23T06:35:31.076Z,7.00
2018-12-23T06:37:33.260Z,7.00
2018-12-23T06:39:35.475Z,7.00
2018-12-23T06:41:37.556Z,7.10
2018-12-23T06:43:39.624Z,7.10
2018-12-23T06:45:41.784Z,7.00
2018-12-23T06:47:44.516Z,7.00
2018-12-23T06:49:46.583Z,7.00
2018-12-23T06:51:48.693Z,7.00
2018-12-23T06:53:50.813Z,7.00
2018-12-23T06:55:52.860Z,7.00
2018-12-23T06:57:55.057Z,7.00
2018-12-23T06:59:57.133Z,7.00
2018-12-23T07:01:59.192Z,7.00
2018-12-23T07:04:01.236Z,7.00
2018-12-23T07:06:03.399Z,7.00
2018-12-23T07:08:05.577Z,7.00
2018-12-23T07:10:07.838Z,6.90
2018-12-23T07:12:10.011Z,6.90
2018-12-23T07:14:12.768Z,7.00
2018-12-23T07:16:14.945Z,7.00
2018-12-23T07:18:17.212Z,7.00
2018-12-23T07:20:19.392Z,6.90
2018-12-23T07:22:21.449Z,7.00
2018-12-23T07:24:23.697Z,7.00
2018-12-23T07:26:25.862Z,7.00
2018-12-23T07:28:28.032Z,6.90
2018-12-23T07:30:30.189Z,6.90
2018-12-23T07:32:32.492Z,6.90
2018-12-23T07:34:34.549Z,6.90
2018-12-23T07:36:36.625Z,6.90
2018-12-23T07:38:38.964Z,6.90
2018-12-23T07:40:41.120Z,6.90
2018-12-23T07:42:43.180Z,6.90
2018-12-23T07:44:45.272Z,6.90
2018-12-23T07:46:47.370Z,6.90
2018-12-23T07:48:49.476Z,6.90
2018-12-23T07:50:53.763Z,6.90
2018-12-23T07:52:55.807Z,6.90
2018-12-23T07:54:57.868Z,6.90
2018-12-23T07:57:00.072Z,6.90
2018-12-23T07:59:02.244Z,6.90
2018-12-23T08:01:04.518Z,6.90
2018-12-23T08:03:06.576Z,6.90
2018-12-23T08:05:10.148Z,6.90
2018-12-23T08:07:12.216Z,7.00
2018-12-23T08:09:14.780Z,6.90
2018-12-23T08:11:16.981Z,7.00
2018-12-23T08:13:19.182Z,7.00
2018-12-23T08:15:21.261Z,7.00
2018-12-23T08:17:23.336Z,7.00
2018-12-23T08:19:25.510Z,7.00
2018-12-23T08:23:55.623Z,7.00
2018-12-23T08:25:57.677Z,7.00
2018-12-23T08:27:59.968Z,7.00
2018-12-23T08:30:02.188Z,7.10
2018-12-23T08:32:04.410Z,7.10
2018-12-23T08:34:06.577Z,7.10
2018-12-23T08:36:08.624Z,7.10
2018-12-23T08:38:10.795Z,7.10
2018-12-23T08:40:12.961Z,7.10
2018-12-23T08:42:15.013Z,7.10
2018-12-23T08:44:17.136Z,7.10
2018-12-23T08:46:19.200Z,7.10
2018-12-23T08:48:21.368Z,7.10
2018-12-23T08:50:23.721Z,7.10
2018-12-23T08:52:25.785Z,7.10
2018-12-23T08:54:27.849Z,7.10
2018-12-23T08:56:30.011Z,7.20
2018-12-23T08:58:32.665Z,7.20
2018-12-23T09:00:34.736Z,7.10
2018-12-23T09:02:36.896Z,7.10
2018-12-23T09:04:38.961Z,7.10
2018-12-23T09:06:41.139Z,7.10
2018-12-23T09:08:43.189Z,7.10
2018-12-23T09:10:45.464Z,7.20
2018-12-23T09:12:47.802Z,7.10
2018-12-23T09:14:49.973Z,7.20
2018-12-23T09:16:52.037Z,7.20
2018-12-23T09:18:54.173Z,7.20
2018-12-23T09:20:56.216Z,7.10
2018-12-23T09:22:58.377Z,7.10
2018-12-23T09:25:00.646Z,7.20
2018-12-23T09:27:02.712Z,7.20
